Time;durP1;ratioP1;P1;durP2;ratioP2;P2;SDS_P1;SDS_P2;PMS_P1;PMS_P2;Temp;Humidity;BMP_temperature;BMP_pressure;BME280_temperature;BME280_humidity;BME280_pressure;Samples;Min_cycle;Max_cycle;Signal;HPM_P1;HPM_P2
2023/06/22 00:00:31;;;;;;;18.50;16.85;;;18.60;99.90;;;;;;5246630;28;20028;-71
2023/06/22 00:03:02;;;;;;;18.88;17.27;;;18.50;99.90;;;;;;5246310;28;20036;-71
2023/06/22 00:05:33;;;;;;;18.60;17.20;;;18.50;99.90;;;;;;5246581;28;20121;-71
2023/06/22 00:08:07;;;;;;;19.23;17.63;;;18.50;99.90;;;;;;5246328;28;20369;-71
2023/06/22 00:10:38;;;;;;;19.27;17.85;;;18.50;99.90;;;;;;5246291;28;20641;-71
2023/06/22 00:13:10;;;;;;;20.92;19.23;;;18.30;99.90;;;;;;5246413;28;20025;-72
2023/06/22 00:15:41;;;;;;;18.85;17.45;;;18.20;99.90;;;;;;5245712;28;20036;-73
2023/06/22 00:18:13;;;;;;;19.45;17.77;;;18.20;99.90;;;;;;5246312;28;20039;-73
2023/06/22 00:20:45;;;;;;;21.27;19.65;;;18.40;99.90;;;;;;5246184;28;20067;-71
2023/06/22 00:23:17;;;;;;;17.98;16.45;;;18.30;99.90;;;;;;5246203;28;20021;-73
2023/06/22 00:25:48;;;;;;;18.25;16.85;;;18.20;99.90;;;;;;5232230;28;20020;-73
2023/06/22 00:28:19;;;;;;;17.55;16.10;;;18.30;99.90;;;;;;5250067;28;20369;-73
2023/06/22 00:30:50;;;;;;;18.38;16.70;;;18.20;99.90;;;;;;5250305;28;20112;-73
2023/06/22 00:33:21;;;;;;;18.30;16.75;;;18.00;99.90;;;;;;5250192;28;20609;-73
2023/06/22 00:35:55;;;;;;;18.45;16.95;;;18.10;99.90;;;;;;5250147;28;20025;-73
2023/06/22 00:38:26;;;;;;;19.45;17.95;;;18.10;99.90;;;;;;5250181;28;20365;-73
2023/06/22 00:40:57;;;;;;;18.70;17.10;;;18.10;99.90;;;;;;5250260;28;20024;-73
2023/06/22 00:43:27;;;;;;;18.55;17.10;;;17.80;99.90;;;;;;5250045;28;20535;-72
2023/06/22 00:45:59;;;;;;;17.52;16.23;;;17.80;99.90;;;;;;5249553;28;20028;-72
2023/06/22 00:48:30;;;;;;;17.42;15.73;;;17.70;99.90;;;;;;5249719;28;20036;-72
2023/06/22 00:51:01;;;;;;;18.70;17.08;;;17.60;99.90;;;;;;5249949;28;20035;-72
2023/06/22 00:53:34;;;;;;;17.63;16.35;;;17.70;99.90;;;;;;5250101;28;20824;-72
2023/06/22 00:56:06;;;;;;;17.92;16.60;;;17.90;99.90;;;;;;5249963;28;20032;-72
2023/06/22 00:58:37;;;;;;;16.50;15.20;;;17.90;99.90;;;;;;5249684;28;20024;-72
2023/06/22 01:01:08;;;;;;;15.93;14.52;;;17.70;99.90;;;;;;5249693;28;20028;-72
2023/06/22 01:03:39;;;;;;;16.85;15.18;;;17.70;99.90;;;;;;5249454;28;20033;-72
2023/06/22 01:06:18;;;;;;;15.80;14.40;;;17.80;99.90;;;;;;5249528;28;20548;-72
2023/06/22 01:09:16;;;;;;;14.23;12.57;;;17.80;99.90;;;;;;5249446;28;20089;-72
2023/06/22 01:11:57;;;;;;;13.13;11.90;;;17.70;99.90;;;;;;5236017;28;20041;-72
2023/06/22 01:14:52;;;;;;;14.15;12.80;;;17.80;99.90;;;;;;5249488;28;20059;-72
2023/06/22 01:17:24;;;;;;;13.35;12.20;;;17.50;99.90;;;;;;5249120;28;20052;-72
2023/06/22 01:19:55;;;;;;;12.95;11.80;;;17.50;99.90;;;;;;5249396;28;20039;-72
2023/06/22 01:22:32;;;;;;;13.13;11.80;;;17.50;99.90;;;;;;5249121;28;20051;-72
2023/06/22 01:25:28;;;;;;;13.43;12.13;;;17.40;99.90;;;;;;5249184;28;20060;-72
2023/06/22 01:28:17;;;;;;;12.80;11.70;;;17.50;99.90;;;;;;5249040;28;20411;-72
2023/06/22 01:31:00;;;;;;;13.07;11.98;;;17.50;99.90;;;;;;5249102;28;20036;-72
2023/06/22 01:33:36;;;;;;;12.98;11.68;;;17.40;99.90;;;;;;5249090;28;20349;-72
2023/06/22 01:36:08;;;;;;;12.38;11.30;;;17.40;99.90;;;;;;5248391;28;20082;-72
2023/06/22 01:38:40;;;;;;;12.45;11.35;;;17.40;99.90;;;;;;5248889;28;20032;-73
2023/06/22 01:41:12;;;;;;;13.20;12.10;;;17.50;99.90;;;;;;5249029;28;20416;-72
2023/06/22 01:43:43;;;;;;;14.55;12.32;;;17.50;99.90;;;;;;5248778;28;20052;-72
2023/06/22 01:46:15;;;;;;;12.25;11.15;;;17.50;99.90;;;;;;5248681;28;20051;-72
2023/06/22 01:48:47;;;;;;;13.30;11.95;;;17.10;99.90;;;;;;5248809;28;20066;-72
2023/06/22 01:51:18;;;;;;;11.63;10.63;;;17.50;99.90;;;;;;5248646;28;20106;-72
2023/06/22 01:53:49;;;;;;;13.13;11.70;;;17.50;99.90;;;;;;5248711;28;20017;-72
2023/06/22 01:56:20;;;;;;;11.25;10.05;;;17.60;99.90;;;;;;5248628;28;20038;-73
2023/06/22 01:59:14;;;;;;;12.60;11.50;;;17.50;99.90;;;;;;5248548;28;20015;-72
2023/06/22 02:01:57;;;;;;;11.48;10.57;;;17.40;99.90;;;;;;5248535;28;20028;-72
2023/06/22 02:04:48;;;;;;;12.15;10.65;;;17.20;99.90;;;;;;5248558;28;20013;-73
2023/06/22 02:07:22;;;;;;;12.88;11.77;;;17.20;99.90;;;;;;5248827;28;20032;-72
2023/06/22 02:09:54;;;;;;;12.50;11.13;;;17.30;99.90;;;;;;5248821;28;20028;-72
2023/06/22 02:12:27;;;;;;;11.70;10.70;;;17.30;99.90;;;;;;5249267;28;20475;-72
2023/06/22 02:15:00;;;;;;;12.15;10.95;;;17.30;99.90;;;;;;5248626;28;20131;-72
2023/06/22 02:17:32;;;;;;;12.00;10.90;;;17.30;99.90;;;;;;5248438;28;20048;-72
2023/06/22 02:20:08;;;;;;;11.98;11.07;;;17.20;99.90;;;;;;5248374;28;20028;-72
2023/06/22 02:22:39;;;;;;;13.30;12.18;;;17.00;99.90;;;;;;5248221;28;20025;-72
2023/06/22 02:25:10;;;;;;;12.38;11.27;;;17.00;99.90;;;;;;5248211;28;20095;-72
2023/06/22 02:27:41;;;;;;;13.35;12.35;;;16.80;99.90;;;;;;5247993;28;20060;-72
2023/06/22 02:30:12;;;;;;;11.63;10.48;;;17.10;99.90;;;;;;5247890;28;20059;-72
2023/06/22 02:32:43;;;;;;;12.23;11.07;;;16.90;99.90;;;;;;5247863;28;20016;-72
2023/06/22 02:35:14;;;;;;;14.77;10.90;;;17.00;99.90;;;;;;5247681;28;20376;-72
2023/06/22 02:37:46;;;;;;;12.10;11.13;;;16.80;99.90;;;;;;5247689;28;20031;-72
2023/06/22 02:40:17;;;;;;;12.13;10.98;;;16.80;99.90;;;;;;5247907;28;20110;-72
2023/06/22 02:42:48;;;;;;;11.45;10.13;;;16.90;99.90;;;;;;5229673;28;20476;-72
2023/06/22 02:45:19;;;;;;;12.40;11.07;;;17.00;99.90;;;;;;5247405;28;20035;-72
2023/06/22 02:47:50;;;;;;;11.35;10.25;;;16.90;99.90;;;;;;5246557;28;20087;-72
2023/06/22 02:50:21;;;;;;;10.88;9.88;;;17.10;99.90;;;;;;5247429;28;20515;-72
2023/06/22 02:52:52;;;;;;;11.63;10.45;;;17.00;99.90;;;;;;5247484;28;20028;-72
2023/06/22 02:55:23;;;;;;;11.55;10.45;;;17.20;99.90;;;;;;5247375;28;20028;-72
2023/06/22 02:57:54;;;;;;;11.25;10.35;;;16.90;99.90;;;;;;5247384;28;20023;-72
2023/06/22 03:00:30;;;;;;;11.15;10.15;;;17.00;99.90;;;;;;5229541;28;20513;-72
2023/06/22 03:03:01;;;;;;;11.40;10.25;;;17.10;99.90;;;;;;5247315;28;20013;-72
2023/06/22 03:05:32;;;;;;;11.88;10.88;;;17.10;99.90;;;;;;5229203;28;20028;-72
2023/06/22 03:08:03;;;;;;;13.30;12.07;;;17.30;99.90;;;;;;5247001;28;20040;-72
2023/06/22 03:10:34;;;;;;;12.95;11.75;;;17.20;99.90;;;;;;5229230;28;20529;-72
2023/06/22 03:13:05;;;;;;;12.38;11.13;;;17.20;99.90;;;;;;5229062;28;20478;-72
2023/06/22 03:15:36;;;;;;;12.80;10.93;;;17.00;99.90;;;;;;5246656;28;20024;-72
2023/06/22 03:18:06;;;;;;;12.82;11.63;;;16.90;99.90;;;;;;5247114;28;20349;-72
2023/06/22 03:20:38;;;;;;;14.23;12.10;;;17.00;99.90;;;;;;5247196;28;20082;-72
2023/06/22 03:23:08;;;;;;;13.55;12.25;;;17.00;99.90;;;;;;5247240;28;20016;-72
2023/06/22 03:25:40;;;;;;;13.85;12.48;;;17.20;99.90;;;;;;5246970;28;20499;-73
2023/06/22 03:28:11;;;;;;;13.35;12.07;;;17.30;99.90;;;;;;5246858;28;20025;-73
2023/06/22 03:30:42;;;;;;;12.80;11.80;;;17.40;99.90;;;;;;5246966;28;20376;-72
2023/06/22 03:33:13;;;;;;;13.65;12.32;;;17.50;99.90;;;;;;5247193;28;20039;-72
2023/06/22 03:35:44;;;;;;;13.88;12.68;;;17.60;99.90;;;;;;5246805;28;20059;-73
2023/06/22 03:38:15;;;;;;;14.70;13.30;;;17.50;99.90;;;;;;5246875;28;20482;-72
2023/06/22 03:40:46;;;;;;;13.85;12.68;;;17.60;99.90;;;;;;5246780;28;20017;-72
2023/06/22 03:43:17;;;;;;;14.45;13.20;;;17.70;99.90;;;;;;5246661;28;20111;-72
2023/06/22 03:45:48;;;;;;;14.93;13.63;;;17.80;99.90;;;;;;5246414;28;20548;-72
2023/06/22 03:48:19;;;;;;;14.90;13.50;;;17.60;99.90;;;;;;5246378;28;20033;-72
2023/06/22 03:50:50;;;;;;;14.85;13.48;;;17.40;99.90;;;;;;5246590;28;20066;-72
2023/06/22 03:53:21;;;;;;;14.60;13.10;;;17.50;99.90;;;;;;5246596;28;20032;-72
2023/06/22 03:55:52;;;;;;;15.32;14.02;;;17.50;99.90;;;;;;5246550;28;20072;-72
2023/06/22 03:58:23;;;;;;;15.35;13.88;;;17.70;99.90;;;;;;5246354;28;20029;-73
2023/06/22 04:00:54;;;;;;;15.23;13.73;;;17.80;99.90;;;;;;5246288;28;20048;-72
2023/06/22 04:03:25;;;;;;;15.73;14.43;;;17.80;99.90;;;;;;5246427;28;20060;-72
2023/06/22 04:05:56;;;;;;;15.57;14.05;;;18.00;99.90;;;;;;5246460;28;20029;-73
2023/06/22 04:08:27;;;;;;;15.80;14.43;;;18.00;99.90;;;;;;5246116;28;20091;-72
2023/06/22 04:10:57;;;;;;;16.92;15.32;;;18.00;99.90;;;;;;5246272;28;20028;-72
2023/06/22 04:13:28;;;;;;;16.60;15.10;;;18.10;99.90;;;;;;5246341;28;20029;-72
2023/06/22 04:16:01;;;;;;;16.23;14.82;;;18.10;99.90;;;;;;5245884;28;20072;-72
2023/06/22 04:18:32;;;;;;;16.50;14.85;;;18.10;99.90;;;;;;5246463;28;20036;-72
2023/06/22 04:21:03;;;;;;;15.40;14.10;;;18.40;99.90;;;;;;5246362;28;20024;-72
2023/06/22 04:23:34;;;;;;;15.52;14.25;;;18.50;99.90;;;;;;5246308;28;20460;-72
2023/06/22 04:26:05;;;;;;;15.50;14.00;;;18.70;99.90;;;;;;5246220;28;20063;-72
2023/06/22 04:28:36;;;;;;;17.77;14.90;;;18.60;99.90;;;;;;5246185;28;20472;-72
2023/06/22 04:31:07;;;;;;;16.42;14.88;;;18.40;99.90;;;;;;5246609;28;20074;-72
2023/06/22 04:33:40;;;;;;;17.70;15.93;;;18.60;99.90;;;;;;5246304;28;20039;-72
2023/06/22 04:36:13;;;;;;;17.23;15.63;;;18.90;99.90;;;;;;5246162;28;20025;-73
2023/06/22 04:38:44;;;;;;;17.45;15.88;;;18.90;99.90;;;;;;5246095;28;20652;-72
2023/06/22 04:41:23;;;;;;;18.02;16.55;;;19.10;99.90;;;;;;5246118;28;20020;-72
2023/06/22 04:43:59;;;;;;;17.30;15.82;;;19.20;99.90;;;;;;5246102;28;20081;-72
2023/06/22 04:46:30;;;;;;;19.08;17.48;;;19.10;99.90;;;;;;5245871;28;20025;-72
2023/06/22 04:49:01;;;;;;;19.80;18.20;;;19.40;99.90;;;;;;5245850;28;20044;-72
2023/06/22 04:51:32;;;;;;;19.67;17.90;;;19.60;99.90;;;;;;5245906;28;20021;-72
2023/06/22 04:54:05;;;;;;;19.55;17.88;;;19.80;99.90;;;;;;5246083;28;20056;-72
2023/06/22 04:56:36;;;;;;;19.58;17.98;;;19.90;99.90;;;;;;5245921;28;20028;-72
2023/06/22 04:59:08;;;;;;;19.80;18.23;;;19.90;99.90;;;;;;5245767;28;20129;-72
2023/06/22 05:01:39;;;;;;;19.17;17.42;;;20.10;99.90;;;;;;5245921;28;20024;-72
2023/06/22 05:04:10;;;;;;;16.88;15.48;;;20.20;99.90;;;;;;5245831;28;20468;-72
2023/06/22 05:06:40;;;;;;;18.20;16.45;;;20.20;99.90;;;;;;5245662;28;20060;-72
2023/06/22 05:09:12;;;;;;;17.45;15.90;;;20.40;99.90;;;;;;5245602;28;20043;-72
2023/06/22 05:11:43;;;;;;;16.35;14.85;;;20.70;99.90;;;;;;5247433;28;20067;-72
2023/06/22 05:14:14;;;;;;;16.98;15.57;;;20.70;99.90;;;;;;5249420;28;20420;-72
2023/06/22 05:16:45;;;;;;;15.52;14.02;;;20.90;99.90;;;;;;5248902;28;20079;-72
2023/06/22 05:19:16;;;;;;;15.23;13.90;;;20.90;99.90;;;;;;5249229;28;20111;-72
2023/06/22 05:21:47;;;;;;;14.93;13.57;;;21.20;99.90;;;;;;5249336;28;20097;-72
2023/06/22 05:24:18;;;;;;;16.30;14.90;;;21.30;99.90;;;;;;5249167;28;20483;-72
2023/06/22 05:26:49;;;;;;;14.18;12.88;;;21.30;99.90;;;;;;5249111;28;20032;-72
2023/06/22 05:29:21;;;;;;;15.18;13.70;;;21.60;99.90;;;;;;5249104;28;20135;-72
2023/06/22 05:31:52;;;;;;;15.30;13.90;;;21.70;99.90;;;;;;5249036;28;20086;-72
2023/06/22 05:34:23;;;;;;;15.10;13.73;;;22.00;99.90;;;;;;5249089;28;20024;-72
2023/06/22 05:36:54;;;;;;;14.75;13.55;;;22.20;99.90;;;;;;5248815;28;20092;-72
2023/06/22 05:39:25;;;;;;;14.93;13.63;;;22.50;99.90;;;;;;5249143;28;20523;-72
2023/06/22 05:41:56;;;;;;;16.05;14.40;;;22.70;99.90;;;;;;5249535;28;20094;-72
2023/06/22 05:44:27;;;;;;;15.07;13.88;;;22.80;99.90;;;;;;5248956;28;20127;-72
2023/06/22 05:46:58;;;;;;;18.45;13.55;;;23.00;99.90;;;;;;5248462;28;20028;-72
2023/06/22 05:49:32;;;;;;;14.75;13.38;;;23.10;99.90;;;;;;5248807;28;20036;-72
2023/06/22 05:52:03;;;;;;;15.80;14.30;;;23.30;99.90;;;;;;5248731;28;20036;-72
2023/06/22 05:54:35;;;;;;;15.20;13.95;;;23.40;99.90;;;;;;5248614;28;20028;-73
2023/06/22 05:57:06;;;;;;;15.88;14.65;;;23.40;99.90;;;;;;5248547;28;20029;-72
2023/06/22 05:59:37;;;;;;;15.60;14.07;;;23.70;99.90;;;;;;5248575;28;20055;-73
2023/06/22 06:02:08;;;;;;;13.27;12.13;;;23.70;99.90;;;;;;5248475;28;20025;-72
2023/06/22 06:04:38;;;;;;;12.60;11.50;;;23.70;99.90;;;;;;5248574;28;20460;-73
2023/06/22 06:07:09;;;;;;;11.35;10.18;;;23.80;99.90;;;;;;5248470;28;20104;-72
2023/06/22 06:09:40;;;;;;;11.60;10.60;;;24.00;99.90;;;;;;5248324;28;20032;-72
2023/06/22 06:12:11;;;;;;;11.48;10.07;;;24.00;99.90;;;;;;5248498;28;20031;-72
2023/06/22 06:14:42;;;;;;;11.45;10.20;;;24.10;99.90;;;;;;5248199;28;20032;-72
2023/06/22 06:17:13;;;;;;;14.40;13.07;;;24.20;99.90;;;;;;5247948;28;20385;-72
2023/06/22 06:19:44;;;;;;;12.88;11.68;;;24.20;99.90;;;;;;5230319;28;20398;-72
2023/06/22 06:22:14;;;;;;;12.20;11.20;;;24.40;99.90;;;;;;5229969;28;20025;-72
2023/06/22 06:24:46;;;;;;;11.80;10.27;;;24.40;99.90;;;;;;5248057;28;20111;-72
2023/06/22 06:27:19;;;;;;;13.80;12.60;;;24.50;99.90;;;;;;5248119;28;20060;-72
2023/06/22 06:29:50;;;;;;;13.85;12.48;;;24.50;99.90;;;;;;5247894;28;20036;-73
2023/06/22 06:32:21;;;;;;;16.48;12.52;;;24.60;99.90;;;;;;5248001;28;20015;-72
2023/06/22 06:34:52;;;;;;;13.45;12.18;;;24.70;99.90;;;;;;5247780;28;20024;-72
2023/06/22 06:37:23;;;;;;;14.30;13.10;;;24.90;99.90;;;;;;5248010;28;20051;-72
2023/06/22 06:39:57;;;;;;;15.68;14.20;;;24.90;99.90;;;;;;5247707;28;20354;-73
2023/06/22 06:42:28;;;;;;;15.93;14.73;;;25.00;99.90;;;;;;5247617;28;20086;-72
2023/06/22 06:44:59;;;;;;;16.35;14.82;;;25.10;99.90;;;;;;5247221;28;20484;-72
2023/06/22 06:47:29;;;;;;;16.55;15.10;;;25.20;99.90;;;;;;5228863;28;20045;-73
2023/06/22 06:50:00;;;;;;;16.70;15.30;;;25.30;99.90;;;;;;5247939;28;20118;-73
2023/06/22 06:52:32;;;;;;;15.90;14.60;;;25.40;99.90;;;;;;5247615;28;20473;-72
2023/06/22 06:55:08;;;;;;;14.60;13.38;;;25.50;99.90;;;;;;5247427;28;20151;-72
2023/06/22 06:57:40;;;;;;;12.45;11.30;;;25.40;99.90;;;;;;5247501;28;20048;-73
2023/06/22 07:00:13;;;;;;;12.32;11.18;;;25.60;99.90;;;;;;5247395;28;20067;-73
2023/06/22 07:02:45;;;;;;;11.85;10.82;;;25.60;99.90;;;;;;5247188;28;20028;-73
2023/06/22 07:05:16;;;;;;;27.40;11.05;;;25.70;99.90;;;;;;5247148;28;20472;-73
2023/06/22 07:07:47;;;;;;;11.57;10.48;;;25.90;99.90;;;;;;5246907;28;20085;-72
2023/06/22 07:10:18;;;;;;;13.15;11.93;;;25.90;99.90;;;;;;5246966;28;20071;-72
2023/06/22 07:12:49;;;;;;;12.68;11.15;;;25.90;99.90;;;;;;5247128;28;20028;-72
2023/06/22 07:15:20;;;;;;;13.57;12.05;;;26.00;99.90;;;;;;5246688;28;20029;-73
2023/06/22 07:17:50;;;;;;;10.30;9.38;;;26.00;99.90;;;;;;5246818;28;20057;-72
2023/06/22 07:20:21;;;;;;;10.93;9.93;;;26.00;99.90;;;;;;5246923;28;20408;-72
2023/06/22 07:22:53;;;;;;;10.15;9.23;;;26.20;99.90;;;;;;5247184;28;20063;-72
2023/06/22 07:25:24;;;;;;;13.07;9.90;;;26.40;99.90;;;;;;5247213;28;20055;-72
2023/06/22 07:28:05;;;;;;;10.77;9.73;;;26.30;99.90;;;;;;5247029;28;20389;-73
2023/06/22 07:30:36;;;;;;;10.90;9.75;;;26.20;99.90;;;;;;5246863;28;20090;-72
2023/06/22 07:33:08;;;;;;;10.27;9.25;;;26.40;99.90;;;;;;5246838;28;20032;-72
2023/06/22 07:35:39;;;;;;;10.20;9.18;;;26.50;99.90;;;;;;5246333;28;20086;-73
2023/06/22 07:38:10;;;;;;;10.95;9.40;;;26.30;99.90;;;;;;5246790;28;20025;-72
2023/06/22 07:40:41;;;;;;;10.10;9.10;;;26.60;99.90;;;;;;5246678;28;20028;-72
2023/06/22 07:43:12;;;;;;;10.70;9.70;;;26.60;99.90;;;;;;5246576;28;20141;-72
2023/06/22 07:45:52;;;;;;;11.70;10.68;;;26.80;99.90;;;;;;5246495;28;20107;-72
2023/06/22 07:48:23;;;;;;;11.05;10.15;;;26.90;99.90;;;;;;5246641;28;20060;-72
2023/06/22 07:50:53;;;;;;;10.65;9.75;;;26.80;99.90;;;;;;5246710;28;20086;-73
2023/06/22 07:53:24;;;;;;;12.32;9.38;;;27.00;99.90;;;;;;5246576;28;20038;-72
2023/06/22 07:55:55;;;;;;;10.30;8.57;;;27.10;99.90;;;;;;5246462;28;20068;-73
2023/06/22 07:58:26;;;;;;;9.98;8.43;;;27.10;99.90;;;;;;5246904;28;20492;-72
2023/06/22 08:00:57;;;;;;;8.73;7.93;;;27.30;99.90;;;;;;5246898;28;20031;-73
2023/06/22 08:03:28;;;;;;;9.57;8.77;;;27.30;99.90;;;;;;5246496;28;20573;-72
2023/06/22 08:05:59;;;;;;;11.18;10.13;;;27.30;99.90;;;;;;5246424;28;20100;-73
2023/06/22 08:08:30;;;;;;;11.57;10.60;;;27.30;99.90;;;;;;5246101;28;20488;-72
2023/06/22 08:11:01;;;;;;;10.95;9.95;;;27.50;99.90;;;;;;5246474;28;20035;-72
2023/06/22 08:13:32;;;;;;;13.43;10.80;;;27.50;99.90;;;;;;5246412;28;20115;-72
2023/06/22 08:16:03;;;;;;;10.15;9.15;;;27.50;99.90;;;;;;5245868;28;20074;-71
2023/06/22 08:18:34;;;;;;;10.73;8.27;;;27.60;99.90;;;;;;5246268;28;20050;-72
2023/06/22 08:21:05;;;;;;;8.32;7.28;;;27.70;99.90;;;;;;5246148;28;20031;-72
2023/06/22 08:23:36;;;;;;;8.05;7.30;;;27.70;99.90;;;;;;5246282;28;20472;-73
2023/06/22 08:26:07;;;;;;;9.07;7.57;;;27.70;99.90;;;;;;5246042;28;20107;-72
2023/06/22 08:28:38;;;;;;;9.82;7.63;;;27.70;99.90;;;;;;5246035;28;20119;-72
2023/06/22 08:31:09;;;;;;;8.15;7.35;;;27.90;99.90;;;;;;5245898;28;20369;-72
2023/06/22 08:33:40;;;;;;;9.93;7.97;;;27.90;99.90;;;;;;5245784;28;20028;-72
2023/06/22 08:36:13;;;;;;;8.02;7.35;;;27.90;99.90;;;;;;5227770;28;20082;-72
2023/06/22 08:38:44;;;;;;;7.57;6.97;;;27.50;99.90;;;;;;5245838;28;20032;-73
2023/06/22 08:41:16;;;;;;;7.45;6.80;;;27.90;99.90;;;;;;5246073;28;20020;-72
2023/06/22 08:43:47;;;;;;;8.75;7.65;;;28.00;99.90;;;;;;5245842;28;20036;-73
2023/06/22 08:46:22;;;;;;;8.20;7.40;;;28.00;99.90;;;;;;5246950;28;20476;-72
2023/06/22 08:48:53;;;;;;;8.60;7.75;;;28.10;99.90;;;;;;5249863;28;20033;-72
2023/06/22 08:51:24;;;;;;;9.20;8.38;;;28.10;99.90;;;;;;5249948;28;20024;-72
2023/06/22 08:53:55;;;;;;;8.40;7.55;;;28.20;99.90;;;;;;5249826;28;20032;-73
2023/06/22 08:56:26;;;;;;;8.60;7.72;;;28.20;99.90;;;;;;5249951;28;20025;-73
2023/06/22 08:58:56;;;;;;;9.95;7.40;;;28.20;99.90;;;;;;5249841;28;20476;-72
2023/06/22 09:01:28;;;;;;;8.35;7.50;;;28.20;99.90;;;;;;5249638;28;20056;-72
2023/06/22 09:03:59;;;;;;;8.30;7.70;;;28.30;99.90;;;;;;5249801;28;20298;-72
2023/06/22 09:06:31;;;;;;;11.80;8.32;;;28.50;99.90;;;;;;5249957;28;20067;-72
2023/06/22 09:09:02;;;;;;;8.57;7.72;;;28.40;99.90;;;;;;5249772;28;20044;-73
2023/06/22 09:11:33;;;;;;;9.65;8.70;;;28.40;99.90;;;;;;5249613;28;20043;-72
2023/06/22 09:14:05;;;;;;;9.02;8.23;;;28.40;99.90;;;;;;5249276;28;20039;-72
2023/06/22 09:16:35;;;;;;;8.35;7.55;;;28.40;99.90;;;;;;5248977;28;20393;-73
2023/06/22 09:19:06;;;;;;;7.65;6.90;;;28.40;99.90;;;;;;5249342;28;20032;-72
2023/06/22 09:21:37;;;;;;;8.68;7.78;;;28.40;99.90;;;;;;5249216;28;20538;-72
2023/06/22 09:24:08;;;;;;;8.23;7.63;;;28.60;99.90;;;;;;5249298;28;20033;-72
2023/06/22 09:26:39;;;;;;;8.23;7.53;;;28.40;99.90;;;;;;5249061;28;20021;-72
2023/06/22 09:29:10;;;;;;;8.40;7.70;;;28.40;99.90;;;;;;5249071;28;20503;-72
2023/06/22 09:31:41;;;;;;;8.00;7.40;;;28.30;99.90;;;;;;5249085;28;20106;-72
2023/06/22 09:34:12;;;;;;;7.55;6.90;;;28.30;99.90;;;;;;5249182;28;20028;-72
2023/06/22 09:36:43;;;;;;;8.75;7.88;;;28.40;99.90;;;;;;5249045;28;20426;-72
2023/06/22 09:39:14;;;;;;;9.30;8.38;;;28.50;99.90;;;;;;5248979;28;20698;-72
2023/06/22 09:41:44;;;;;;;7.65;6.88;;;28.60;99.90;;;;;;5248965;28;20400;-72
2023/06/22 09:44:15;;;;;;;8.63;6.88;;;28.80;99.90;;;;;;5248761;28;20106;-73
2023/06/22 09:46:46;;;;;;;7.65;7.05;;;28.80;99.90;;;;;;5248512;28;20586;-72
2023/06/22 09:49:17;;;;;;;8.30;7.70;;;28.80;99.90;;;;;;5248651;28;20488;-72
2023/06/22 09:51:49;;;;;;;7.88;7.13;;;28.70;99.90;;;;;;5248820;28;20020;-72
2023/06/22 09:54:20;;;;;;;7.70;7.03;;;28.70;99.90;;;;;;5248785;28;20071;-73
2023/06/22 09:56:51;;;;;;;9.20;7.90;;;27.90;99.90;;;;;;5248101;28;20020;-72
2023/06/22 09:59:22;;;;;;;7.75;7.15;;;28.70;99.90;;;;;;5248710;28;20499;-72
2023/06/22 10:01:52;;;;;;;7.90;7.22;;;28.60;99.90;;;;;;5248924;28;20461;-73
2023/06/22 10:04:24;;;;;;;7.18;6.57;;;28.60;99.90;;;;;;5230918;28;20020;-72
2023/06/22 10:06:55;;;;;;;7.93;7.22;;;28.80;99.90;;;;;;5248691;28;20113;-72
2023/06/22 10:09:26;;;;;;;10.23;7.30;;;29.10;99.90;;;;;;5248335;28;20715;-73
2023/06/22 10:11:57;;;;;;;7.97;7.40;;;29.10;99.90;;;;;;5248472;28;20052;-72
2023/06/22 10:14:29;;;;;;;7.60;6.97;;;29.10;99.90;;;;;;5248803;28;20029;-72
2023/06/22 10:17:00;;;;;;;8.30;7.60;;;29.10;99.90;;;;;;5247990;28;20843;-73
2023/06/22 10:19:31;;;;;;;6.82;6.32;;;29.00;99.90;;;;;;5248118;28;20040;-72
2023/06/22 10:22:02;;;;;;;7.97;7.28;;;29.10;99.90;;;;;;5248022;28;20035;-72
2023/06/22 10:24:33;;;;;;;7.93;7.13;;;29.10;99.90;;;;;;5247995;28;20020;-73
2023/06/22 10:27:04;;;;;;;6.72;6.13;;;29.30;99.90;;;;;;5248158;28;20043;-72
2023/06/22 10:29:35;;;;;;;7.90;7.20;;;29.30;99.90;;;;;;5247644;28;20033;-72
2023/06/22 10:32:06;;;;;;;6.97;6.38;;;29.20;99.90;;;;;;5247956;28;20503;-72
2023/06/22 10:34:37;;;;;;;7.82;7.13;;;29.00;99.90;;;;;;5247744;28;20091;-73
2023/06/22 10:37:08;;;;;;;7.63;6.93;;;29.10;99.90;;;;;;5247734;28;20052;-72
2023/06/22 10:39:39;;;;;;;6.82;6.22;;;29.20;99.90;;;;;;5247644;28;20104;-72
2023/06/22 10:42:09;;;;;;;7.63;6.93;;;29.30;99.90;;;;;;5247732;28;20025;-72
2023/06/22 10:44:43;;;;;;;8.25;7.65;;;29.20;99.90;;;;;;5247313;28;20032;-72
2023/06/22 10:47:14;;;;;;;7.97;7.15;;;29.10;99.90;;;;;;5247449;28;20024;-73
2023/06/22 10:49:44;;;;;;;8.23;7.63;;;29.20;99.90;;;;;;5247270;28;20408;-72
2023/06/22 10:52:15;;;;;;;8.18;7.53;;;29.20;99.90;;;;;;5247394;28;20056;-72
2023/06/22 10:54:46;;;;;;;9.50;8.38;;;29.30;99.90;;;;;;5247344;28;20024;-72
2023/06/22 10:57:17;;;;;;;7.85;7.25;;;29.40;99.90;;;;;;5247404;28;20031;-72
2023/06/22 10:59:48;;;;;;;7.72;6.88;;;29.50;99.90;;;;;;5247312;28;20166;-72
2023/06/22 11:02:19;;;;;;;8.80;8.10;;;29.60;99.90;;;;;;5247383;28;20532;-72
2023/06/22 11:04:50;;;;;;;9.40;7.40;;;29.70;99.90;;;;;;5247518;28;20104;-72
2023/06/22 11:07:21;;;;;;;9.93;7.20;;;29.60;99.90;;;;;;5247626;28;20016;-73
2023/06/22 11:09:51;;;;;;;10.57;8.30;;;29.20;99.90;;;;;;5246491;28;20040;-72
2023/06/22 11:12:22;;;;;;;8.38;7.35;;;29.40;99.90;;;;;;5247355;28;20021;-72
2023/06/22 11:14:53;;;;;;;8.90;6.85;;;29.20;99.90;;;;;;5247015;28;20155;-72
2023/06/22 11:17:24;;;;;;;8.63;6.57;;;29.50;99.90;;;;;;5247023;28;20048;-72
2023/06/22 11:19:55;;;;;;;10.68;7.60;;;29.40;99.90;;;;;;5247641;28;20032;-72
2023/06/22 11:22:26;;;;;;;8.10;7.30;;;29.70;99.90;;;;;;5247569;28;20032;-72
2023/06/22 11:24:57;;;;;;;7.70;6.53;;;29.70;99.90;;;;;;5247696;28;20099;-73
2023/06/22 11:27:28;;;;;;;7.47;6.53;;;29.80;99.90;;;;;;5247099;28;20116;-72
2023/06/22 11:29:59;;;;;;;8.50;7.13;;;29.50;99.90;;;;;;5246968;28;20039;-72
2023/06/22 11:32:29;;;;;;;10.93;6.93;;;29.40;99.90;;;;;;5247077;28;20073;-72
2023/06/22 11:35:00;;;;;;;9.50;7.30;;;29.70;99.90;;;;;;5246786;28;20103;-73
2023/06/22 11:37:31;;;;;;;8.75;7.82;;;29.70;99.90;;;;;;5246783;28;20032;-73
2023/06/22 11:40:05;;;;;;;10.52;8.75;;;29.70;99.90;;;;;;5246669;28;20108;-73
2023/06/22 11:42:36;;;;;;;9.43;7.80;;;29.90;99.90;;;;;;5246474;28;20032;-72
2023/06/22 11:45:07;;;;;;;9.85;8.07;;;29.80;99.90;;;;;;5246514;28;20436;-72
2023/06/22 11:47:39;;;;;;;11.27;7.22;;;30.00;99.90;;;;;;5246567;28;20041;-72
2023/06/22 11:50:10;;;;;;;9.57;7.90;;;29.80;99.90;;;;;;5246534;28;20108;-72
2023/06/22 11:52:41;;;;;;;10.07;7.97;;;29.80;99.90;;;;;;5246631;28;20123;-72
2023/06/22 11:55:12;;;;;;;8.32;7.22;;;29.80;99.90;;;;;;5246548;28;20111;-72
2023/06/22 11:57:55;;;;;;;9.57;8.43;;;30.00;99.90;;;;;;5246575;28;20031;-72
2023/06/22 12:00:26;;;;;;;9.02;8.00;;;30.10;99.90;;;;;;5228387;28;20056;-72
2023/06/22 12:02:57;;;;;;;11.25;7.65;;;30.00;99.90;;;;;;5246374;28;20472;-72
2023/06/22 12:05:28;;;;;;;12.02;7.22;;;30.00;99.90;;;;;;5246239;28;20430;-72
2023/06/22 12:07:59;;;;;;;12.02;7.80;;;29.90;99.90;;;;;;5246348;28;20025;-72
2023/06/22 12:10:30;;;;;;;12.68;8.10;;;29.90;99.90;;;;;;5246364;28;20028;-73
2023/06/22 12:13:01;;;;;;;14.10;8.10;;;29.90;99.90;;;;;;5246235;28;20024;-72
2023/06/22 12:15:32;;;;;;;9.48;7.00;;;29.90;99.90;;;;;;5246042;28;20029;-73
2023/06/22 12:18:03;;;;;;;14.38;6.95;;;30.10;99.90;;;;;;5246335;28;20032;-72
2023/06/22 12:20:34;;;;;;;11.20;7.75;;;29.80;99.90;;;;;;5248131;28;20021;-72
2023/06/22 12:23:05;;;;;;;13.65;7.63;;;29.90;99.90;;;;;;5250596;28;20039;-72
2023/06/22 12:25:36;;;;;;;13.00;7.93;;;29.80;99.90;;;;;;5250470;28;20017;-72
2023/06/22 12:28:07;;;;;;;13.20;8.43;;;29.90;99.90;;;;;;5250541;28;20060;-73
2023/06/22 12:30:37;;;;;;;11.88;8.57;;;29.70;99.90;;;;;;5250624;28;20032;-72
2023/06/22 12:33:08;;;;;;;11.45;8.07;;;29.60;99.90;;;;;;5250911;28;20086;-72
2023/06/22 12:35:39;;;;;;;13.00;7.90;;;29.60;99.90;;;;;;5250504;28;20025;-72
2023/06/22 12:38:10;;;;;;;12.90;8.52;;;29.60;99.90;;;;;;5250399;28;20770;-72
2023/06/22 12:40:41;;;;;;;11.25;9.30;;;29.60;99.90;;;;;;5250240;28;20499;-72
2023/06/22 12:43:12;;;;;;;9.63;8.35;;;29.60;99.90;;;;;;5250087;28;20021;-73
2023/06/22 12:45:43;;;;;;;9.18;8.23;;;29.70;99.90;;;;;;5249918;28;20033;-72
2023/06/22 12:48:14;;;;;;;11.57;8.80;;;29.50;99.90;;;;;;5250040;28;20102;-72
2023/06/22 12:50:47;;;;;;;11.07;8.10;;;29.40;99.90;;;;;;5250173;28;20812;-72
2023/06/22 12:53:18;;;;;;;8.98;8.18;;;29.50;99.90;;;;;;5250227;28;20031;-72
2023/06/22 12:55:49;;;;;;;9.35;8.43;;;29.40;99.90;;;;;;5249994;28;20053;-72